sensor_id;sensor_type;location;lat;lon;timestamp;temperature;humidity
2967;DHT22;1493;51.496;7.210;2022-07-19T00:00:18;21.70;99.90
2967;DHT22;1493;51.496;7.210;2022-07-19T00:02:46;21.70;99.90
2967;DHT22;1493;51.496;7.210;2022-07-19T00:05:14;21.70;99.90
2967;DHT22;1493;51.496;7.210;2022-07-19T00:07:41;21.60;99.90
2967;DHT22;1493;51.496;7.210;2022-07-19T00:10:10;21.60;99.90
2967;DHT22;1493;51.496;7.210;2022-07-19T00:12:38;21.60;99.90
2967;DHT22;1493;51.496;7.210;2022-07-19T00:15:09;21.50;99.90
2967;DHT22;1493;51.496;7.210;2022-07-19T00:17:39;21.50;99.90
2967;DHT22;1493;51.496;7.210;2022-07-19T00:20:07;21.50;99.90
2967;DHT22;1493;51.496;7.210;2022-07-19T00:22:35;21.50;99.90
2967;DHT22;1493;51.496;7.210;2022-07-19T00:25:02;21.50;99.90
2967;DHT22;1493;51.496;7.210;2022-07-19T00:27:29;21.50;99.90
2967;DHT22;1493;51.496;7.210;2022-07-19T00:29:56;21.40;99.90
2967;DHT22;1493;51.496;7.210;2022-07-19T00:32:24;21.40;99.90
2967;DHT22;1493;51.496;7.210;2022-07-19T00:34:51;21.40;99.90
2967;DHT22;1493;51.496;7.210;2022-07-19T00:37:18;21.30;99.90
2967;DHT22;1493;51.496;7.210;2022-07-19T00:39:45;21.30;99.90
2967;DHT22;1493;51.496;7.210;2022-07-19T00:42:12;21.30;99.90
2967;DHT22;1493;51.496;7.210;2022-07-19T00:44:40;21.30;99.90
2967;DHT22;1493;51.496;7.210;2022-07-19T00:47:07;21.30;99.90
2967;DHT22;1493;51.496;7.210;2022-07-19T00:49:35;21.20;99.90
2967;DHT22;1493;51.496;7.210;2022-07-19T00:52:03;21.20;99.90
2967;DHT22;1493;51.496;7.210;2022-07-19T00:54:33;21.20;99.90
2967;DHT22;1493;51.496;7.210;2022-07-19T00:57:02;21.20;99.90
2967;DHT22;1493;51.496;7.210;2022-07-19T00:59:29;21.20;99.90
2967;DHT22;1493;51.496;7.210;2022-07-19T01:01:58;21.20;99.90
2967;DHT22;1493;51.496;7.210;2022-07-19T01:04:25;21.10;99.90
2967;DHT22;1493;51.496;7.210;2022-07-19T01:06:54;21.10;99.90
2967;DHT22;1493;51.496;7.210;2022-07-19T01:09:21;21.10;99.90
2967;DHT22;1493;51.496;7.210;2022-07-19T01:11:48;21.00;99.90
2967;DHT22;1493;51.496;7.210;2022-07-19T01:14:15;21.00;99.90
2967;DHT22;1493;51.496;7.210;2022-07-19T01:16:45;21.00;99.90
2967;DHT22;1493;51.496;7.210;2022-07-19T01:19:12;21.00;99.90
2967;DHT22;1493;51.496;7.210;2022-07-19T01:21:41;21.00;99.90
2967;DHT22;1493;51.496;7.210;2022-07-19T01:24:08;20.90;99.90
2967;DHT22;1493;51.496;7.210;2022-07-19T01:26:34;20.90;99.90
2967;DHT22;1493;51.496;7.210;2022-07-19T01:29:01;20.90;99.90
2967;DHT22;1493;51.496;7.210;2022-07-19T01:31:28;20.90;99.90
2967;DHT22;1493;51.496;7.210;2022-07-19T01:33:55;20.90;99.90
2967;DHT22;1493;51.496;7.210;2022-07-19T01:36:22;20.90;99.90
2967;DHT22;1493;51.496;7.210;2022-07-19T01:38:50;20.90;99.90
2967;DHT22;1493;51.496;7.210;2022-07-19T01:41:17;20.90;99.90
2967;DHT22;1493;51.496;7.210;2022-07-19T01:43:44;20.90;99.90
2967;DHT22;1493;51.496;7.210;2022-07-19T01:46:11;20.80;99.90
2967;DHT22;1493;51.496;7.210;2022-07-19T01:48:38;20.80;99.90
2967;DHT22;1493;51.496;7.210;2022-07-19T01:51:05;20.80;99.90
2967;DHT22;1493;51.496;7.210;2022-07-19T01:53:32;20.80;99.90
2967;DHT22;1493;51.496;7.210;2022-07-19T01:56:03;20.80;99.90
2967;DHT22;1493;51.496;7.210;2022-07-19T01:58:31;20.80;99.90
2967;DHT22;1493;51.496;7.210;2022-07-19T02:00:57;20.70;99.90
2967;DHT22;1493;51.496;7.210;2022-07-19T02:03:24;20.70;99.90
2967;DHT22;1493;51.496;7.210;2022-07-19T02:05:51;20.70;99.90
2967;DHT22;1493;51.496;7.210;2022-07-19T02:08:18;20.70;99.90
2967;DHT22;1493;51.496;7.210;2022-07-19T02:10:45;20.70;99.90
2967;DHT22;1493;51.496;7.210;2022-07-19T02:13:13;20.70;99.90
2967;DHT22;1493;51.496;7.210;2022-07-19T02:15:40;20.60;99.90
2967;DHT22;1493;51.496;7.210;2022-07-19T02:18:07;20.60;99.90
2967;DHT22;1493;51.496;7.210;2022-07-19T02:20:34;20.60;99.90
2967;DHT22;1493;51.496;7.210;2022-07-19T02:23:01;20.60;99.90
2967;DHT22;1493;51.496;7.210;2022-07-19T02:25:28;20.60;99.90
2967;DHT22;1493;51.496;7.210;2022-07-19T02:27:54;20.60;99.90
2967;DHT22;1493;51.496;7.210;2022-07-19T02:30:23;20.50;99.90
2967;DHT22;1493;51.496;7.210;2022-07-19T02:32:50;20.50;99.90
2967;DHT22;1493;51.496;7.210;2022-07-19T02:35:16;20.50;99.90
2967;DHT22;1493;51.496;7.210;2022-07-19T02:37:44;20.50;99.90
2967;DHT22;1493;51.496;7.210;2022-07-19T02:40:11;20.50;99.90
2967;DHT22;1493;51.496;7.210;2022-07-19T02:42:38;20.50;99.90
2967;DHT22;1493;51.496;7.210;2022-07-19T02:45:06;20.40;99.90
2967;DHT22;1493;51.496;7.210;2022-07-19T02:47:34;20.40;99.90
2967;DHT22;1493;51.496;7.210;2022-07-19T02:50:01;20.40;99.90
2967;DHT22;1493;51.496;7.210;2022-07-19T02:52:29;20.40;99.90
2967;DHT22;1493;51.496;7.210;2022-07-19T02:54:56;20.40;99.90
2967;DHT22;1493;51.496;7.210;2022-07-19T02:57:23;20.40;99.90
2967;DHT22;1493;51.496;7.210;2022-07-19T02:59:50;20.30;99.90
2967;DHT22;1493;51.496;7.210;2022-07-19T03:02:17;20.30;99.90
2967;DHT22;1493;51.496;7.210;2022-07-19T03:04:45;20.30;99.90
2967;DHT22;1493;51.496;7.210;2022-07-19T03:07:12;20.30;99.90
2967;DHT22;1493;51.496;7.210;2022-07-19T03:09:39;20.30;99.90
2967;DHT22;1493;51.496;7.210;2022-07-19T03:12:06;20.20;99.90
2967;DHT22;1493;51.496;7.210;2022-07-19T03:14:33;20.20;99.90
2967;DHT22;1493;51.496;7.210;2022-07-19T03:17:00;20.20;99.90
2967;DHT22;1493;51.496;7.210;2022-07-19T03:19:26;20.20;99.90
2967;DHT22;1493;51.496;7.210;2022-07-19T03:21:55;20.20;99.90
2967;DHT22;1493;51.496;7.210;2022-07-19T03:24:22;20.20;99.90
2967;DHT22;1493;51.496;7.210;2022-07-19T03:26:49;20.20;99.90
2967;DHT22;1493;51.496;7.210;2022-07-19T03:29:15;20.20;99.90
2967;DHT22;1493;51.496;7.210;2022-07-19T03:31:42;20.20;99.90
2967;DHT22;1493;51.496;7.210;2022-07-19T03:34:09;20.10;99.90
2967;DHT22;1493;51.496;7.210;2022-07-19T03:36:36;20.10;99.90
2967;DHT22;1493;51.496;7.210;2022-07-19T03:39:05;20.10;99.90
2967;DHT22;1493;51.496;7.210;2022-07-19T03:41:32;20.10;99.90
2967;DHT22;1493;51.496;7.210;2022-07-19T03:43:59;20.10;99.90
2967;DHT22;1493;51.496;7.210;2022-07-19T03:46:26;20.10;99.90
2967;DHT22;1493;51.496;7.210;2022-07-19T03:48:54;20.10;99.90
2967;DHT22;1493;51.496;7.210;2022-07-19T03:51:21;20.10;99.90
2967;DHT22;1493;51.496;7.210;2022-07-19T03:53:48;20.10;99.90
2967;DHT22;1493;51.496;7.210;2022-07-19T03:56:16;20.10;99.90
2967;DHT22;1493;51.496;7.210;2022-07-19T03:58:46;20.00;99.90
2967;DHT22;1493;51.496;7.210;2022-07-19T04:01:13;20.00;99.90
2967;DHT22;1493;51.496;7.210;2022-07-19T04:03:40;20.00;99.90
2967;DHT22;1493;51.496;7.210;2022-07-19T04:06:09;20.00;99.90
2967;DHT22;1493;51.496;7.210;2022-07-19T04:08:36;20.00;99.90
2967;DHT22;1493;51.496;7.210;2022-07-19T04:11:04;20.00;99.90
2967;DHT22;1493;51.496;7.210;2022-07-19T04:13:34;20.00;99.90
2967;DHT22;1493;51.496;7.210;2022-07-19T04:16:01;20.10;99.90
2967;DHT22;1493;51.496;7.210;2022-07-19T04:18:28;20.10;99.90
2967;DHT22;1493;51.496;7.210;2022-07-19T04:20:54;20.10;99.90
2967;DHT22;1493;51.496;7.210;2022-07-19T04:23:21;20.10;99.90
2967;DHT22;1493;51.496;7.210;2022-07-19T04:25:48;20.10;99.90
2967;DHT22;1493;51.496;7.210;2022-07-19T04:28:17;20.10;99.90
2967;DHT22;1493;51.496;7.210;2022-07-19T04:30:45;20.20;99.90
2967;DHT22;1493;51.496;7.210;2022-07-19T04:33:18;20.20;99.90
2967;DHT22;1493;51.496;7.210;2022-07-19T04:35:45;20.20;99.90
2967;DHT22;1493;51.496;7.210;2022-07-19T04:38:12;20.20;99.90
2967;DHT22;1493;51.496;7.210;2022-07-19T04:40:39;20.30;99.90
2967;DHT22;1493;51.496;7.210;2022-07-19T04:43:06;20.30;99.90
2967;DHT22;1493;51.496;7.210;2022-07-19T04:45:33;20.30;99.90
2967;DHT22;1493;51.496;7.210;2022-07-19T04:48:02;20.30;99.90
2967;DHT22;1493;51.496;7.210;2022-07-19T04:50:28;20.40;99.90
2967;DHT22;1493;51.496;7.210;2022-07-19T04:52:55;20.40;99.90
2967;DHT22;1493;51.496;7.210;2022-07-19T04:55:23;20.40;99.90
2967;DHT22;1493;51.496;7.210;2022-07-19T04:57:50;20.50;99.90
2967;DHT22;1493;51.496;7.210;2022-07-19T05:00:17;20.60;99.90
2967;DHT22;1493;51.496;7.210;2022-07-19T05:02:45;20.60;99.90
2967;DHT22;1493;51.496;7.210;2022-07-19T05:05:16;20.60;99.90
2967;DHT22;1493;51.496;7.210;2022-07-19T05:07:43;20.70;99.90
2967;DHT22;1493;51.496;7.210;2022-07-19T05:10:10;20.70;99.90
2967;DHT22;1493;51.496;7.210;2022-07-19T05:12:37;20.80;99.90
2967;DHT22;1493;51.496;7.210;2022-07-19T05:15:05;20.80;99.90
2967;DHT22;1493;51.496;7.210;2022-07-19T05:17:32;20.90;99.90
2967;DHT22;1493;51.496;7.210;2022-07-19T05:19:59;20.90;99.90
2967;DHT22;1493;51.496;7.210;2022-07-19T05:22:27;21.00;99.90
2967;DHT22;1493;51.496;7.210;2022-07-19T05:24:55;21.10;99.90
2967;DHT22;1493;51.496;7.210;2022-07-19T05:27:22;21.10;99.90
2967;DHT22;1493;51.496;7.210;2022-07-19T05:29:49;21.20;99.90
2967;DHT22;1493;51.496;7.210;2022-07-19T05:32:16;21.20;99.90
2967;DHT22;1493;51.496;7.210;2022-07-19T05:34:44;21.30;99.90
2967;DHT22;1493;51.496;7.210;2022-07-19T05:37:11;21.40;99.90
2967;DHT22;1493;51.496;7.210;2022-07-19T05:39:40;21.40;99.90
2967;DHT22;1493;51.496;7.210;2022-07-19T05:42:06;21.40;99.90
2967;DHT22;1493;51.496;7.210;2022-07-19T05:44:33;21.50;99.90
2967;DHT22;1493;51.496;7.210;2022-07-19T05:47:00;21.60;99.90
2967;DHT22;1493;51.496;7.210;2022-07-19T05:49:27;21.70;99.90
2967;DHT22;1493;51.496;7.210;2022-07-19T05:51:54;21.70;99.90
2967;DHT22;1493;51.496;7.210;2022-07-19T05:54:21;21.80;99.90
2967;DHT22;1493;51.496;7.210;2022-07-19T05:56:49;21.90;99.90
2967;DHT22;1493;51.496;7.210;2022-07-19T05:59:16;21.90;99.90
2967;DHT22;1493;51.496;7.210;2022-07-19T06:01:46;22.00;99.90
2967;DHT22;1493;51.496;7.210;2022-07-19T06:04:13;22.00;99.90
2967;DHT22;1493;51.496;7.210;2022-07-19T06:06:40;22.10;99.90
2967;DHT22;1493;51.496;7.210;2022-07-19T06:09:07;22.20;99.90
2967;DHT22;1493;51.496;7.210;2022-07-19T06:11:38;22.30;99.90
2967;DHT22;1493;51.496;7.210;2022-07-19T06:14:06;22.30;99.90
2967;DHT22;1493;51.496;7.210;2022-07-19T06:16:38;22.40;99.90
2967;DHT22;1493;51.496;7.210;2022-07-19T06:19:06;22.50;99.90
2967;DHT22;1493;51.496;7.210;2022-07-19T06:21:37;22.60;99.90
2967;DHT22;1493;51.496;7.210;2022-07-19T06:24:05;22.70;99.90
2967;DHT22;1493;51.496;7.210;2022-07-19T06:26:32;22.80;99.90
2967;DHT22;1493;51.496;7.210;2022-07-19T06:28:58;22.90;99.90
2967;DHT22;1493;51.496;7.210;2022-07-19T06:31:27;23.00;99.90
2967;DHT22;1493;51.496;7.210;2022-07-19T06:33:54;23.10;99.90
2967;DHT22;1493;51.496;7.210;2022-07-19T06:36:21;23.20;99.90
2967;DHT22;1493;51.496;7.210;2022-07-19T06:38:48;23.30;99.90
2967;DHT22;1493;51.496;7.210;2022-07-19T06:41:16;23.40;99.90
2967;DHT22;1493;51.496;7.210;2022-07-19T06:43:43;23.50;99.90
2967;DHT22;1493;51.496;7.210;2022-07-19T06:46:10;23.60;99.90
2967;DHT22;1493;51.496;7.210;2022-07-19T06:48:38;23.70;99.90
2967;DHT22;1493;51.496;7.210;2022-07-19T06:51:06;23.80;99.90
2967;DHT22;1493;51.496;7.210;2022-07-19T06:53:33;23.80;99.90
2967;DHT22;1493;51.496;7.210;2022-07-19T06:56:00;23.90;99.90
2967;DHT22;1493;51.496;7.210;2022-07-19T06:58:27;24.00;99.90
2967;DHT22;1493;51.496;7.210;2022-07-19T07:00:55;24.00;99.90
2967;DHT22;1493;51.496;7.210;2022-07-19T07:03:21;24.10;99.90
2967;DHT22;1493;51.496;7.210;2022-07-19T07:05:50;24.20;99.90
2967;DHT22;1493;51.496;7.210;2022-07-19T07:08:16;24.30;99.90
2967;DHT22;1493;51.496;7.210;2022-07-19T07:10:43;24.40;99.90
2967;DHT22;1493;51.496;7.210;2022-07-19T07:13:10;24.50;99.90
2967;DHT22;1493;51.496;7.210;2022-07-19T07:15:37;24.60;99.90
2967;DHT22;1493;51.496;7.210;2022-07-19T07:18:06;24.70;99.90
2967;DHT22;1493;51.496;7.210;2022-07-19T07:20:33;24.90;99.90
2967;DHT22;1493;51.496;7.210;2022-07-19T07:23:01;25.00;99.90
2967;DHT22;1493;51.496;7.210;2022-07-19T07:25:29;25.20;99.90
2967;DHT22;1493;51.496;7.210;2022-07-19T07:27:55;25.30;99.90
2967;DHT22;1493;51.496;7.210;2022-07-19T07:30:22;25.50;99.90
2967;DHT22;1493;51.496;7.210;2022-07-19T07:32:49;25.70;99.90
2967;DHT22;1493;51.496;7.210;2022-07-19T07:35:16;25.80;99.90
2967;DHT22;1493;51.496;7.210;2022-07-19T07:37:43;25.90;99.90
2967;DHT22;1493;51.496;7.210;2022-07-19T07:40:12;26.00;99.90
2967;DHT22;1493;51.496;7.210;2022-07-19T07:42:38;26.10;99.90
2967;DHT22;1493;51.496;7.210;2022-07-19T07:45:06;26.20;99.90
2967;DHT22;1493;51.496;7.210;2022-07-19T07:47:35;26.30;99.90
2967;DHT22;1493;51.496;7.210;2022-07-19T07:50:03;26.50;99.90
2967;DHT22;1493;51.496;7.210;2022-07-19T07:52:30;26.60;99.90
2967;DHT22;1493;51.496;7.210;2022-07-19T07:54:57;26.70;99.90
2967;DHT22;1493;51.496;7.210;2022-07-19T07:57:26;27.00;99.90
2967;DHT22;1493;51.496;7.210;2022-07-19T07:59:53;27.10;99.90
2967;DHT22;1493;51.496;7.210;2022-07-19T08:02:20;27.30;99.90
2967;DHT22;1493;51.496;7.210;2022-07-19T08:04:47;27.40;99.90
2967;DHT22;1493;51.496;7.210;2022-07-19T08:07:14;27.50;99.90
2967;DHT22;1493;51.496;7.210;2022-07-19T08:09:41;27.70;99.90
2967;DHT22;1493;51.496;7.210;2022-07-19T08:12:08;27.80;99.90
2967;DHT22;1493;51.496;7.210;2022-07-19T08:14:36;27.90;99.90
2967;DHT22;1493;51.496;7.210;2022-07-19T08:17:03;28.20;99.90
2967;DHT22;1493;51.496;7.210;2022-07-19T08:19:30;28.30;99.90
2967;DHT22;1493;51.496;7.210;2022-07-19T08:21:56;28.50;99.90
2967;DHT22;1493;51.496;7.210;2022-07-19T08:24:23;28.70;99.90
2967;DHT22;1493;51.496;7.210;2022-07-19T08:26:50;28.90;99.90
2967;DHT22;1493;51.496;7.210;2022-07-19T08:29:17;29.10;99.90
2967;DHT22;1493;51.496;7.210;2022-07-19T08:31:45;29.30;99.90
2967;DHT22;1493;51.496;7.210;2022-07-19T08:34:12;29.50;99.90
2967;DHT22;1493;51.496;7.210;2022-07-19T08:36:39;29.70;99.90
2967;DHT22;1493;51.496;7.210;2022-07-19T08:39:06;29.80;99.90
2967;DHT22;1493;51.496;7.210;2022-07-19T08:41:33;30.00;99.90
2967;DHT22;1493;51.496;7.210;2022-07-19T08:44:02;30.20;99.90
2967;DHT22;1493;51.496;7.210;2022-07-19T08:46:29;30.40;99.90
2967;DHT22;1493;51.496;7.210;2022-07-19T08:48:57;30.60;99.90
2967;DHT22;1493;51.496;7.210;2022-07-19T08:51:26;30.80;99.90
2967;DHT22;1493;51.496;7.210;2022-07-19T08:53:53;30.90;99.90
2967;DHT22;1493;51.496;7.210;2022-07-19T08:56:20;31.10;99.90
2967;DHT22;1493;51.496;7.210;2022-07-19T08:59:05;31.30;99.90
2967;DHT22;1493;51.496;7.210;2022-07-19T09:01:32;31.50;99.90
2967;DHT22;1493;51.496;7.210;2022-07-19T09:04:09;31.80;99.90
2967;DHT22;1493;51.496;7.210;2022-07-19T09:06:41;32.00;99.90
2967;DHT22;1493;51.496;7.210;2022-07-19T09:09:09;32.20;99.90
2967;DHT22;1493;51.496;7.210;2022-07-19T09:11:37;32.40;99.90
2967;DHT22;1493;51.496;7.210;2022-07-19T09:14:07;32.50;98.90
2967;DHT22;1493;51.496;7.210;2022-07-19T09:16:52;32.70;96.40
2967;DHT22;1493;51.496;7.210;2022-07-19T09:19:21;32.80;94.10
2967;DHT22;1493;51.496;7.210;2022-07-19T09:21:57;33.00;93.30
2967;DHT22;1493;51.496;7.210;2022-07-19T09:24:25;33.20;93.80
2967;DHT22;1493;51.496;7.210;2022-07-19T09:26:57;33.40;94.00
2967;DHT22;1493;51.496;7.210;2022-07-19T09:29:24;33.50;92.60
2967;DHT22;1493;51.496;7.210;2022-07-19T09:31:58;33.60;88.00
2967;DHT22;1493;51.496;7.210;2022-07-19T09:34:31;33.80;96.20
2967;DHT22;1493;51.496;7.210;2022-07-19T09:37:09;33.90;92.80
2967;DHT22;1493;51.496;7.210;2022-07-19T09:39:36;34.20;97.00
2967;DHT22;1493;51.496;7.210;2022-07-19T09:42:05;34.20;89.80
2967;DHT22;1493;51.496;7.210;2022-07-19T09:44:32;34.40;89.90
2967;DHT22;1493;51.496;7.210;2022-07-19T09:46:59;34.50;92.80
2967;DHT22;1493;51.496;7.210;2022-07-19T09:49:26;34.70;82.70
2967;DHT22;1493;51.496;7.210;2022-07-19T09:51:55;35.00;93.00
2967;DHT22;1493;51.496;7.210;2022-07-19T09:54:24;35.10;92.20
2967;DHT22;1493;51.496;7.210;2022-07-19T09:56:52;35.20;87.70
2967;DHT22;1493;51.496;7.210;2022-07-19T09:59:20;35.50;84.90
2967;DHT22;1493;51.496;7.210;2022-07-19T10:01:48;35.50;78.80
2967;DHT22;1493;51.496;7.210;2022-07-19T10:04:16;35.70;83.50
2967;DHT22;1493;51.496;7.210;2022-07-19T10:06:45;35.90;86.80
2967;DHT22;1493;51.496;7.210;2022-07-19T10:09:15;36.00;84.30
2967;DHT22;1493;51.496;7.210;2022-07-19T10:11:43;35.90;68.30
2967;DHT22;1493;51.496;7.210;2022-07-19T10:14:11;35.90;64.30
2967;DHT22;1493;51.496;7.210;2022-07-19T10:16:55;36.10;68.90
2967;DHT22;1493;51.496;7.210;2022-07-19T10:19:28;36.30;71.60
2967;DHT22;1493;51.496;7.210;2022-07-19T10:21:57;36.40;76.40
2967;DHT22;1493;51.496;7.210;2022-07-19T10:24:50;36.60;69.20
2967;DHT22;1493;51.496;7.210;2022-07-19T10:27:19;36.60;65.40
2967;DHT22;1493;51.496;7.210;2022-07-19T10:30:16;36.80;68.80
2967;DHT22;1493;51.496;7.210;2022-07-19T10:32:45;36.90;67.30
2967;DHT22;1493;51.496;7.210;2022-07-19T10:35:17;37.00;68.50
2967;DHT22;1493;51.496;7.210;2022-07-19T10:37:46;37.10;66.40
2967;DHT22;1493;51.496;7.210;2022-07-19T10:40:35;37.20;58.50
2967;DHT22;1493;51.496;7.210;2022-07-19T10:43:05;37.30;59.10
2967;DHT22;1493;51.496;7.210;2022-07-19T10:45:32;37.60;69.30
2967;DHT22;1493;51.496;7.210;2022-07-19T10:48:11;37.50;62.70
2967;DHT22;1493;51.496;7.210;2022-07-19T10:50:47;37.50;58.30
2967;DHT22;1493;51.496;7.210;2022-07-19T10:56:18;38.00;61.80
2967;DHT22;1493;51.496;7.210;2022-07-19T10:58:47;38.10;68.10
2967;DHT22;1493;51.496;7.210;2022-07-19T11:01:15;38.50;63.40
2967;DHT22;1493;51.496;7.210;2022-07-19T11:03:44;38.60;61.90
2967;DHT22;1493;51.496;7.210;2022-07-19T11:06:19;38.80;62.00
2967;DHT22;1493;51.496;7.210;2022-07-19T11:08:47;39.10;57.10
2967;DHT22;1493;51.496;7.210;2022-07-19T11:11:16;39.30;59.00
2967;DHT22;1493;51.496;7.210;2022-07-19T11:17:50;39.10;99.90
2967;DHT22;1493;51.496;7.210;2022-07-19T11:20:17;39.10;99.90
2967;DHT22;1493;51.496;7.210;2022-07-19T11:22:47;39.60;99.90
2967;DHT22;1493;51.496;7.210;2022-07-19T11:25:16;40.00;99.90
2967;DHT22;1493;51.496;7.210;2022-07-19T11:27:45;40.20;99.90
2967;DHT22;1493;51.496;7.210;2022-07-19T11:30:14;40.60;99.90
2967;DHT22;1493;51.496;7.210;2022-07-19T11:32:42;40.60;99.90
2967;DHT22;1493;51.496;7.210;2022-07-19T11:35:16;40.70;99.90
2967;DHT22;1493;51.496;7.210;2022-07-19T11:37:43;40.90;99.90
2967;DHT22;1493;51.496;7.210;2022-07-19T11:40:12;41.20;99.90
2967;DHT22;1493;51.496;7.210;2022-07-19T11:42:40;41.30;99.90
2967;DHT22;1493;51.496;7.210;2022-07-19T11:45:09;41.40;99.90
2967;DHT22;1493;51.496;7.210;2022-07-19T11:47:37;41.60;99.90
2967;DHT22;1493;51.496;7.210;2022-07-19T11:50:10;41.70;99.90
2967;DHT22;1493;51.496;7.210;2022-07-19T11:52:46;41.90;99.90
2967;DHT22;1493;51.496;7.210;2022-07-19T11:55:13;41.90;99.90
2967;DHT22;1493;51.496;7.210;2022-07-19T11:57:40;42.00;99.90
2967;DHT22;1493;51.496;7.210;2022-07-19T12:00:09;42.00;99.90
2967;DHT22;1493;51.496;7.210;2022-07-19T12:02:57;41.90;99.90
2967;DHT22;1493;51.496;7.210;2022-07-19T12:05:26;42.00;99.90
2967;DHT22;1493;51.496;7.210;2022-07-19T12:07:56;41.90;99.90
2967;DHT22;1493;51.496;7.210;2022-07-19T12:10:41;41.50;99.90
2967;DHT22;1493;51.496;7.210;2022-07-19T12:13:10;41.60;99.90
2967;DHT22;1493;51.496;7.210;2022-07-19T12:15:49;41.70;99.90
2967;DHT22;1493;51.496;7.210;2022-07-19T12:18:19;41.90;99.90
2967;DHT22;1493;51.496;7.210;2022-07-19T12:21:19;41.60;99.90
2967;DHT22;1493;51.496;7.210;2022-07-19T12:24:19;41.90;99.90
2967;DHT22;1493;51.496;7.210;2022-07-19T12:27:01;42.40;99.90
2967;DHT22;1493;51.496;7.210;2022-07-19T12:29:30;42.60;99.90
2967;DHT22;1493;51.496;7.210;2022-07-19T12:32:00;42.80;99.90
2967;DHT22;1493;51.496;7.210;2022-07-19T12:34:28;42.80;99.90
2967;DHT22;1493;51.496;7.210;2022-07-19T12:36:56;43.10;99.90
2967;DHT22;1493;51.496;7.210;2022-07-19T12:39:27;43.20;99.90
2967;DHT22;1493;51.496;7.210;2022-07-19T12:41:57;43.40;99.90
2967;DHT22;1493;51.496;7.210;2022-07-19T12:44:24;43.00;99.90
2967;DHT22;1493;51.496;7.210;2022-07-19T12:46:52;42.90;99.90
2967;DHT22;1493;51.496;7.210;2022-07-19T12:49:19;42.70;99.90
2967;DHT22;1493;51.496;7.210;2022-07-19T12:51:46;42.50;99.90
2967;DHT22;1493;51.496;7.210;2022-07-19T12:54:14;42.60;99.90
2967;DHT22;1493;51.496;7.210;2022-07-19T12:56:41;42.70;99.90
2967;DHT22;1493;51.496;7.210;2022-07-19T12:59:08;42.90;99.90
2967;DHT22;1493;51.496;7.210;2022-07-19T13:01:52;42.90;99.90
2967;DHT22;1493;51.496;7.210;2022-07-19T13:04:19;43.10;99.90
2967;DHT22;1493;51.496;7.210;2022-07-19T13:06:47;43.30;99.90
2967;DHT22;1493;51.496;7.210;2022-07-19T13:09:15;43.40;99.90
2967;DHT22;1493;51.496;7.210;2022-07-19T13:11:44;43.60;99.90
2967;DHT22;1493;51.496;7.210;2022-07-19T13:14:10;43.50;99.90
2967;DHT22;1493;51.496;7.210;2022-07-19T13:16:38;43.50;99.90
2967;DHT22;1493;51.496;7.210;2022-07-19T13:19:06;43.50;99.90
2967;DHT22;1493;51.496;7.210;2022-07-19T13:21:32;43.70;99.90
2967;DHT22;1493;51.496;7.210;2022-07-19T13:23:59;43.90;99.90
2967;DHT22;1493;51.496;7.210;2022-07-19T13:26:29;44.20;99.90
2967;DHT22;1493;51.496;7.210;2022-07-19T13:28:56;44.30;99.90
2967;DHT22;1493;51.496;7.210;2022-07-19T13:31:23;44.30;99.90
2967;DHT22;1493;51.496;7.210;2022-07-19T13:33:50;44.30;99.90
2967;DHT22;1493;51.496;7.210;2022-07-19T13:36:17;44.70;99.90
2967;DHT22;1493;51.496;7.210;2022-07-19T13:38:43;44.60;99.90
2967;DHT22;1493;51.496;7.210;2022-07-19T13:41:10;44.90;99.90
2967;DHT22;1493;51.496;7.210;2022-07-19T13:43:39;45.40;99.90
2967;DHT22;1493;51.496;7.210;2022-07-19T13:46:05;45.40;99.90
2967;DHT22;1493;51.496;7.210;2022-07-19T13:48:33;45.50;99.90
2967;DHT22;1493;51.496;7.210;2022-07-19T13:51:00;45.40;99.90
2967;DHT22;1493;51.496;7.210;2022-07-19T13:53:27;45.50;99.90
2967;DHT22;1493;51.496;7.210;2022-07-19T13:55:54;45.60;99.90
2967;DHT22;1493;51.496;7.210;2022-07-19T13:58:21;45.50;99.90
2967;DHT22;1493;51.496;7.210;2022-07-19T14:00:49;45.80;99.90
2967;DHT22;1493;51.496;7.210;2022-07-19T14:03:16;45.10;99.90
2967;DHT22;1493;51.496;7.210;2022-07-19T14:05:43;45.40;99.90
2967;DHT22;1493;51.496;7.210;2022-07-19T14:08:11;45.70;99.90
2967;DHT22;1493;51.496;7.210;2022-07-19T14:10:38;46.00;99.90
2967;DHT22;1493;51.496;7.210;2022-07-19T14:13:05;45.80;99.90
2967;DHT22;1493;51.496;7.210;2022-07-19T14:15:32;45.90;99.90
2967;DHT22;1493;51.496;7.210;2022-07-19T14:18:01;46.20;99.90
2967;DHT22;1493;51.496;7.210;2022-07-19T14:20:28;46.10;99.90
2967;DHT22;1493;51.496;7.210;2022-07-19T14:22:55;46.40;99.90
2967;DHT22;1493;51.496;7.210;2022-07-19T14:25:22;46.70;99.90
2967;DHT22;1493;51.496;7.210;2022-07-19T14:27:49;46.90;99.90
2967;DHT22;1493;51.496;7.210;2022-07-19T14:30:16;47.20;99.90
2967;DHT22;1493;51.496;7.210;2022-07-19T14:32:42;47.30;99.90
2967;DHT22;1493;51.496;7.210;2022-07-19T14:35:11;46.80;99.90
2967;DHT22;1493;51.496;7.210;2022-07-19T14:37:37;46.90;99.90
2967;DHT22;1493;51.496;7.210;2022-07-19T14:40:05;46.30;99.90
2967;DHT22;1493;51.496;7.210;2022-07-19T14:42:32;46.00;99.90
2967;DHT22;1493;51.496;7.210;2022-07-19T14:44:59;46.30;99.90
2967;DHT22;1493;51.496;7.210;2022-07-19T14:47:26;46.70;99.90
2967;DHT22;1493;51.496;7.210;2022-07-19T14:49:53;47.10;99.90
2967;DHT22;1493;51.496;7.210;2022-07-19T14:52:21;47.10;99.90
2967;DHT22;1493;51.496;7.210;2022-07-19T14:54:48;47.10;99.90
2967;DHT22;1493;51.496;7.210;2022-07-19T14:57:15;47.00;99.90
2967;DHT22;1493;51.496;7.210;2022-07-19T14:59:42;47.30;99.90
2967;DHT22;1493;51.496;7.210;2022-07-19T15:02:09;47.30;99.90
2967;DHT22;1493;51.496;7.210;2022-07-19T15:04:36;47.10;99.90
2967;DHT22;1493;51.496;7.210;2022-07-19T15:07:03;47.10;99.90
2967;DHT22;1493;51.496;7.210;2022-07-19T15:09:31;47.50;99.90
2967;DHT22;1493;51.496;7.210;2022-07-19T15:12:00;47.70;99.90
2967;DHT22;1493;51.496;7.210;2022-07-19T15:14:27;47.50;99.90
2967;DHT22;1493;51.496;7.210;2022-07-19T15:16:55;47.40;99.90
2967;DHT22;1493;51.496;7.210;2022-07-19T15:19:24;46.90;99.90
2967;DHT22;1493;51.496;7.210;2022-07-19T15:21:53;46.90;99.90
2967;DHT22;1493;51.496;7.210;2022-07-19T15:24:21;46.90;99.90
2967;DHT22;1493;51.496;7.210;2022-07-19T15:26:50;47.00;99.90
2967;DHT22;1493;51.496;7.210;2022-07-19T15:29:25;47.10;99.90
2967;DHT22;1493;51.496;7.210;2022-07-19T15:31:52;47.20;99.90
2967;DHT22;1493;51.496;7.210;2022-07-19T15:34:19;47.20;99.90
2967;DHT22;1493;51.496;7.210;2022-07-19T15:36:47;47.20;99.90
2967;DHT22;1493;51.496;7.210;2022-07-19T15:39:14;47.10;99.90
2967;DHT22;1493;51.496;7.210;2022-07-19T15:41:41;46.50;99.90
2967;DHT22;1493;51.496;7.210;2022-07-19T15:44:12;46.20;99.90
2967;DHT22;1493;51.496;7.210;2022-07-19T15:46:39;45.80;99.90
2967;DHT22;1493;51.496;7.210;2022-07-19T15:49:06;45.90;99.90
2967;DHT22;1493;51.496;7.210;2022-07-19T15:51:38;45.80;99.90
2967;DHT22;1493;51.496;7.210;2022-07-19T15:54:07;45.80;99.90
2967;DHT22;1493;51.496;7.210;2022-07-19T15:56:34;45.70;99.90
2967;DHT22;1493;51.496;7.210;2022-07-19T15:59:03;45.50;99.90
2967;DHT22;1493;51.496;7.210;2022-07-19T16:01:32;45.30;99.90
2967;DHT22;1493;51.496;7.210;2022-07-19T16:03:59;44.90;99.90
2967;DHT22;1493;51.496;7.210;2022-07-19T16:06:25;44.70;99.90
2967;DHT22;1493;51.496;7.210;2022-07-19T16:08:52;44.10;99.90
2967;DHT22;1493;51.496;7.210;2022-07-19T16:11:19;43.70;99.90
2967;DHT22;1493;51.496;7.210;2022-07-19T16:13:46;43.50;99.90
2967;DHT22;1493;51.496;7.210;2022-07-19T16:16:13;43.10;99.90